アテネ の空港の天気 - METARとTAF

アテネ国際空港 ( LGAV / ATH ) - ギリシャ アテネ
飛行場実況気象(Metar)
観測時間02/20 16:50 EET (02/20 14:50 UTC)
風向・風速南 5m/s
視程10km以上
天気現象
少しの雲 雲底高度 760m
気温16℃
湿度51%
気圧1019hPa
METARLGAV 201450Z 19009KT 9999 FEW025 16/06 Q1019 NOSIG
過去の天気等 Google飛行場航空写真 Wunderground天気予報

過去48時間のMETAR

飛行場予報(TAF)
発表時間: 2/20 13:00 EET (2/20 11:00 UTC)
予報対象時間: 20日14時 EET ~ 21日14時 EET
風向・風速南西 8m/s
視程10km以上
少しの雲 雲底高度 760m
全天の4割程度の雲 雲底高度 2,130m
20日21時 EET ~ 20日23時 EET に徐々に
風向・風速北 4m/s
TAF LGAV 201100Z 2012/2112 22015KT 9999 FEW025 SCT070
BECMG 2019/2021 01008KT